createdAt,value
2022-12-01T00:00:55.353Z,14.43
2022-12-01T00:06:00.640Z,15.80
2022-12-01T00:11:06.954Z,15.88
2022-12-01T00:16:13.329Z,17.77
2022-12-01T00:21:16.478Z,16.75
2022-12-01T00:26:19.029Z,18.33
2022-12-01T00:31:20.706Z,17.98
2022-12-01T00:36:22.658Z,18.13
2022-12-01T00:41:25.500Z,20.13
2022-12-01T00:46:26.843Z,17.08
2022-12-01T00:51:28.286Z,20.15
2022-12-01T00:56:29.860Z,19.13
2022-12-01T01:01:31.174Z,19.75
2022-12-01T01:06:32.738Z,18.88
2022-12-01T01:11:34.033Z,19.58
2022-12-01T01:16:35.693Z,18.65
2022-12-01T01:21:37.313Z,18.05
2022-12-01T01:26:38.647Z,16.52
2022-12-01T01:31:40.052Z,17.70
2022-12-01T01:36:41.322Z,18.65
2022-12-01T01:41:42.773Z,18.42
2022-12-01T01:46:44.040Z,18.02
2022-12-01T01:51:50.180Z,18.70
2022-12-01T01:56:52.802Z,18.13
2022-12-01T02:02:05.979Z,16.80
2022-12-01T02:07:08.632Z,18.45
2022-12-01T02:12:19.142Z,17.10
2022-12-01T02:18:08.597Z,18.67
2022-12-01T02:23:35.528Z,17.77
2022-12-01T02:28:48.329Z,17.15
2022-12-01T02:33:56.245Z,18.77
2022-12-01T02:39:17.725Z,16.85
2022-12-01T02:44:27.665Z,17.92
2022-12-01T02:49:34.603Z,15.80
2022-12-01T02:54:37.388Z,16.95
2022-12-01T02:59:42.279Z,17.20
2022-12-01T03:10:19.743Z,17.00
2022-12-01T03:15:32.887Z,17.75
2022-12-01T03:20:43.685Z,17.10
2022-12-01T03:25:48.385Z,18.45
2022-12-01T03:30:54.015Z,18.00
2022-12-01T03:35:59.889Z,20.25
2022-12-01T03:41:08.952Z,20.23
2022-12-01T03:46:32.904Z,19.77
2022-12-01T03:51:46.574Z,21.38
2022-12-01T03:56:59.391Z,19.83
2022-12-01T04:02:00.755Z,19.05
2022-12-01T04:07:02.104Z,18.17
2022-12-01T04:12:22.212Z,17.50
2022-12-01T04:17:24.731Z,17.67
2022-12-01T04:22:26.317Z,18.90
2022-12-01T04:27:27.754Z,17.90
2022-12-01T04:32:29.104Z,18.15
2022-12-01T04:37:30.366Z,17.77
2022-12-01T04:42:31.974Z,17.63
2022-12-01T04:47:33.302Z,19.00
2022-12-01T04:52:37.100Z,18.25
2022-12-01T04:57:39.403Z,16.58
2022-12-01T05:02:43.207Z,17.20
2022-12-01T05:07:45.022Z,15.13
2022-12-01T05:12:46.459Z,16.55
2022-12-01T05:17:47.735Z,16.85
2022-12-01T05:23:05.954Z,15.38
2022-12-01T05:28:07.868Z,15.65
2022-12-01T05:33:09.221Z,15.48
2022-12-01T05:38:10.988Z,15.63
2022-12-01T05:43:12.248Z,15.57
2022-12-01T05:48:13.516Z,16.15
2022-12-01T05:53:15.238Z,15.60
2022-12-01T05:58:16.590Z,17.25
2022-12-01T06:03:17.908Z,17.95
2022-12-01T06:08:19.291Z,17.80
2022-12-01T06:13:20.600Z,17.38
2022-12-01T06:18:21.848Z,17.48
2022-12-01T06:23:27.535Z,17.80
2022-12-01T06:28:30.343Z,15.88
2022-12-01T06:33:32.261Z,19.90
2022-12-01T06:38:35.316Z,20.55
2022-12-01T06:43:40.178Z,18.02
2022-12-01T06:48:42.534Z,16.58
2022-12-01T06:53:43.838Z,17.08
2022-12-01T06:58:45.242Z,17.00
2022-12-01T07:03:48.829Z,16.30
2022-12-01T07:08:50.091Z,16.48
2022-12-01T07:13:55.709Z,16.67
2022-12-01T07:18:57.050Z,16.17
2022-12-01T07:23:58.464Z,13.50
2022-12-01T07:28:59.762Z,16.35
2022-12-01T07:34:01.191Z,15.38
2022-12-01T07:39:07.476Z,15.27
2022-12-01T07:44:11.622Z,17.42
2022-12-01T07:49:15.330Z,14.87
2022-12-01T07:54:17.591Z,14.18
2022-12-01T07:59:18.941Z,13.65
2022-12-01T08:04:20.276Z,13.18
2022-12-01T08:09:21.581Z,13.98
2022-12-01T08:14:22.943Z,14.52
2022-12-01T08:19:25.839Z,12.15
2022-12-01T08:24:27.208Z,13.23
2022-12-01T08:29:28.577Z,16.50
2022-12-01T08:34:29.958Z,14.75
2022-12-01T08:39:31.278Z,12.80
2022-12-01T08:44:32.923Z,13.60
2022-12-01T08:49:34.216Z,13.82
2022-12-01T08:54:35.560Z,13.55
2022-12-01T08:59:37.533Z,13.35
2022-12-01T09:04:38.839Z,13.18
2022-12-01T09:09:40.123Z,14.32
2022-12-01T09:14:47.948Z,13.77
2022-12-01T09:19:49.585Z,13.07
2022-12-01T09:24:51.020Z,14.07
2022-12-01T09:29:52.276Z,13.10
2022-12-01T09:34:53.548Z,14.10
2022-12-01T09:39:55.730Z,14.00
2022-12-01T09:45:00.809Z,13.05
2022-12-01T09:50:05.403Z,12.90
2022-12-01T09:55:12.868Z,13.35
2022-12-01T10:00:18.336Z,14.88
2022-12-01T10:05:26.641Z,13.85
2022-12-01T10:10:32.938Z,15.02
2022-12-01T10:15:49.449Z,13.85
2022-12-01T10:20:54.532Z,13.85
2022-12-01T10:25:59.283Z,14.13
2022-12-01T10:36:10.104Z,15.10
2022-12-01T10:41:14.699Z,14.05
2022-12-01T10:46:22.076Z,13.50
2022-12-01T10:51:24.673Z,14.02
2022-12-01T10:56:26.474Z,14.65
2022-12-01T11:01:34.645Z,15.48
2022-12-01T11:06:37.457Z,14.73
2022-12-01T11:11:40.672Z,14.18
2022-12-01T11:16:44.718Z,15.18
2022-12-01T11:21:57.904Z,14.93
2022-12-01T11:27:00.617Z,15.40
2022-12-01T11:32:26.075Z,13.88
2022-12-01T11:37:38.391Z,14.13
2022-12-01T11:42:41.262Z,12.57
2022-12-01T11:48:20.964Z,13.90
2022-12-01T11:53:31.795Z,13.13
2022-12-01T11:58:33.098Z,13.63
2022-12-01T12:03:48.056Z,14.90
2022-12-01T12:09:18.419Z,12.52
2022-12-01T12:14:38.139Z,13.35
2022-12-01T12:20:07.784Z,13.63
2022-12-01T12:25:25.140Z,13.48
2022-12-01T12:30:30.072Z,13.27
2022-12-01T12:35:47.356Z,13.90
2022-12-01T12:40:57.790Z,14.75
2022-12-01T12:46:38.043Z,15.18
2022-12-01T12:51:44.679Z,13.55
2022-12-01T12:56:51.267Z,14.82
2022-12-01T13:02:04.102Z,13.95
2022-12-01T13:07:13.888Z,13.75
2022-12-01T13:12:30.453Z,13.95
2022-12-01T13:17:38.437Z,13.65
2022-12-01T13:22:40.481Z,12.98
2022-12-01T13:27:44.064Z,14.30
2022-12-01T13:37:47.888Z,15.90
2022-12-01T13:43:08.539Z,14.68
2022-12-01T13:48:47.133Z,13.60
2022-12-01T13:54:05.881Z,13.70
2022-12-01T14:00:02.889Z,13.68
2022-12-01T14:05:22.521Z,15.20
2022-12-01T14:10:27.388Z,13.73
2022-12-01T14:15:40.110Z,15.00
2022-12-01T14:20:46.696Z,13.90
2022-12-01T14:26:10.513Z,14.70
2022-12-01T14:31:12.324Z,14.75
2022-12-01T14:36:22.759Z,14.20
2022-12-01T14:41:28.443Z,14.63
2022-12-01T14:46:38.603Z,15.52
2022-12-01T14:51:44.240Z,15.25
2022-12-01T14:56:47.980Z,14.57
2022-12-01T15:01:52.736Z,15.35
2022-12-01T15:12:01.581Z,14.93
2022-12-01T15:17:05.446Z,16.17
2022-12-01T15:22:17.717Z,14.80
2022-12-01T15:27:31.186Z,14.40
2022-12-01T15:32:37.736Z,15.73
2022-12-01T15:37:44.251Z,14.90
2022-12-01T15:43:00.871Z,16.00
2022-12-01T15:48:15.429Z,15.63
2022-12-01T15:53:24.454Z,16.35
2022-12-01T15:58:32.859Z,15.27
2022-12-01T16:03:51.873Z,16.67
2022-12-01T16:08:56.789Z,16.25
2022-12-01T16:14:01.085Z,15.77
2022-12-01T16:19:24.007Z,15.45
2022-12-01T16:24:35.759Z,14.32
2022-12-01T16:30:19.004Z,15.40
2022-12-01T16:35:24.828Z,15.35
2022-12-01T16:40:26.575Z,14.60
2022-12-01T16:45:28.137Z,15.48
2022-12-01T16:50:29.404Z,16.30
2022-12-01T16:55:58.483Z,17.27
2022-12-01T17:00:59.930Z,16.98
2022-12-01T17:06:03.030Z,16.15
2022-12-01T17:11:06.600Z,18.17
2022-12-01T17:16:15.247Z,18.50
2022-12-01T17:21:19.345Z,18.38
2022-12-01T17:26:21.797Z,19.30
2022-12-01T17:31:23.175Z,18.23
2022-12-01T17:36:24.438Z,18.75
2022-12-01T17:41:32.068Z,18.65
2022-12-01T17:46:33.588Z,20.00
2022-12-01T17:51:36.376Z,19.85
2022-12-01T17:56:37.731Z,21.10
2022-12-01T18:01:41.164Z,19.02
2022-12-01T18:06:42.889Z,19.35
2022-12-01T18:11:44.259Z,19.88
2022-12-01T18:16:45.788Z,20.40
2022-12-01T18:21:47.161Z,19.38
2022-12-01T18:26:48.623Z,19.88
2022-12-01T18:31:49.970Z,21.10
2022-12-01T18:36:51.362Z,18.27
2022-12-01T18:41:52.779Z,19.10
2022-12-01T18:46:54.189Z,19.38
2022-12-01T18:51:55.655Z,19.67
2022-12-01T18:56:58.809Z,20.27
2022-12-01T19:02:00.219Z,18.50
2022-12-01T19:07:01.576Z,19.30
2022-12-01T19:12:02.995Z,20.33
2022-12-01T19:17:04.401Z,19.27
2022-12-01T19:22:05.808Z,20.88
2022-12-01T19:27:07.138Z,21.60
2022-12-01T19:32:08.538Z,19.73
2022-12-01T19:37:10.802Z,20.15
2022-12-01T19:42:12.050Z,21.20
2022-12-01T19:47:15.551Z,20.63
2022-12-01T19:52:20.456Z,20.60
2022-12-01T19:57:21.749Z,20.23
2022-12-01T20:02:28.959Z,20.65
2022-12-01T20:07:30.773Z,19.40
2022-12-01T20:12:33.537Z,21.17
2022-12-01T20:17:36.546Z,20.73
2022-12-01T20:22:38.055Z,19.90
2022-12-01T20:27:39.580Z,20.52
2022-12-01T20:32:40.941Z,19.70
2022-12-01T20:37:42.300Z,20.67
2022-12-01T20:42:43.555Z,21.00
2022-12-01T20:47:44.895Z,20.88
2022-12-01T20:52:46.156Z,21.88
2022-12-01T20:57:47.399Z,22.20
2022-12-01T21:02:49.244Z,19.35
2022-12-01T21:07:50.693Z,21.63
2022-12-01T21:13:18.415Z,21.80
2022-12-01T21:18:24.828Z,20.33
2022-12-01T21:23:27.758Z,21.33
2022-12-01T21:28:29.779Z,20.20
2022-12-01T21:33:33.477Z,19.98
2022-12-01T21:38:34.735Z,21.77
2022-12-01T21:43:38.526Z,20.08
2022-12-01T21:48:40.062Z,20.83
2022-12-01T21:53:41.435Z,19.55
2022-12-01T21:58:43.754Z,19.75
2022-12-01T22:03:46.171Z,20.52
2022-12-01T22:08:50.587Z,19.80
2022-12-01T22:13:51.783Z,20.15
2022-12-01T22:18:55.816Z,19.33
2022-12-01T22:24:09.011Z,18.63
2022-12-01T22:29:35.783Z,19.67
2022-12-01T22:34:37.511Z,19.70
2022-12-01T22:39:40.265Z,19.50
2022-12-01T22:44:44.808Z,18.48
2022-12-01T22:49:46.110Z,19.15
2022-12-01T22:54:50.065Z,17.85
2022-12-01T22:59:52.210Z,19.47
2022-12-01T23:04:58.601Z,17.88
2022-12-01T23:10:17.089Z,19.00
2022-12-01T23:15:37.581Z,18.23
2022-12-01T23:20:40.365Z,18.40
2022-12-01T23:25:43.017Z,19.05
2022-12-01T23:30:47.430Z,18.50
2022-12-01T23:35:57.717Z,18.25
2022-12-01T23:41:01.339Z,17.40
2022-12-01T23:46:07.397Z,18.75
2022-12-01T23:51:25.155Z,18.92
2022-12-01T23:56:28.144Z,18.30
